Time;durP1;ratioP1;P1;durP2;ratioP2;P2;SDS_P1;SDS_P2;PMS_P1;PMS_P2;Temp;Humidity;BMP_temperature;BMP_pressure;BME280_temperature;BME280_humidity;BME280_pressure;Samples;Min_cycle;Max_cycle;Signal;HPM_P1;HPM_P2
2021/11/05 15:37:42;;;;;;;0.00;0.00;;;23.40;49.40;;;;;;5025901;28;20394;-35
2021/11/05 15:40:10;;;;;;;0.00;0.00;;;22.60;49.70;;;;;;5006199;28;20498;-36
2021/11/05 15:42:37;;;;;;;0.00;0.00;;;22.30;50.10;;;;;;5009904;28;20018;-35
2021/11/05 15:45:05;;;;;;;0.00;0.00;;;22.20;50.60;;;;;;5010264;28;20019;-35
2021/11/05 15:47:30;;;;;;;0.00;0.00;;;22.20;50.70;;;;;;5013617;28;20053;-39
2021/11/05 15:49:56;;;;;;;0.00;0.00;;;22.20;50.60;;;;;;5026239;28;20024;-37
2021/11/05 15:52:22;;;;;;;0.00;0.00;;;22.20;50.50;;;;;;5024634;28;20075;-36
2021/11/05 15:54:48;;;;;;;0.00;0.00;;;22.10;51.40;;;;;;5024386;28;20061;-36
2021/11/05 15:57:14;;;;;;;0.00;0.00;;;22.20;50.30;;;;;;5027949;28;20484;-36
2021/11/05 15:59:41;;;;;;;0.00;0.00;;;22.20;50.40;;;;;;5027914;28;20025;-36
2021/11/05 16:02:07;;;;;;;0.00;0.00;;;22.20;50.20;;;;;;5021553;28;20017;-38
2021/11/05 16:04:33;;;;;;;0.00;0.00;;;22.20;50.20;;;;;;5009782;28;20105;-35
2021/11/05 16:06:59;;;;;;;0.00;0.00;;;22.20;50.00;;;;;;5008249;28;20080;-39
2021/11/05 16:09:26;;;;;;;0.00;0.00;;;22.20;49.90;;;;;;5009109;28;20059;-39
2021/11/05 16:11:53;;;;;;;0.13;0.00;;;22.20;49.90;;;;;;5009898;28;20076;-38
2021/11/05 16:14:19;;;;;;;0.00;0.00;;;22.20;49.90;;;;;;5008028;28;20026;-45
2021/11/05 16:16:45;;;;;;;0.00;0.00;;;22.20;49.80;;;;;;5004219;28;20437;-37
2021/11/05 16:19:11;;;;;;;0.00;0.00;;;22.20;49.80;;;;;;5003082;28;20106;-45
2021/11/05 16:21:37;;;;;;;0.00;0.00;;;22.20;49.60;;;;;;5009883;28;20033;-38
2021/11/05 16:24:05;;;;;;;0.00;0.00;;;22.20;49.30;;;;;;5003648;28;20076;-37
2021/11/05 16:26:31;;;;;;;0.00;0.00;;;22.20;49.10;;;;;;4997188;28;20043;-38
2021/11/05 16:28:56;;;;;;;0.00;0.00;;;22.30;49.20;;;;;;5010476;28;20022;-35
2021/11/05 16:31:22;;;;;;;0.00;0.00;;;22.30;48.80;;;;;;5004429;28;20033;-35
2021/11/05 16:37:48;;;;;;;6.78;4.18;;;22.00;32.30;;;;;;5067410;28;20413;-76
2021/11/05 16:40:14;;;;;;;7.70;3.80;;;20.30;32.90;;;;;;5019096;28;20512;-73
2021/11/05 16:42:41;;;;;;;5.07;3.72;;;18.30;35.40;;;;;;5008147;28;20030;-76
2021/11/05 16:45:09;;;;;;;4.32;3.38;;;16.30;38.30;;;;;;5003623;28;20022;-74
2021/11/05 16:47:35;;;;;;;7.78;5.53;;;14.90;41.00;;;;;;5010489;28;20054;-74
2021/11/05 16:50:05;;;;;;;5.30;4.78;;;13.70;42.10;;;;;;5021990;28;20029;-74
2021/11/05 16:52:31;;;;;;;6.22;4.05;;;12.90;43.60;;;;;;5002267;28;20080;-73
2021/11/05 16:54:57;;;;;;;8.38;3.80;;;12.20;45.70;;;;;;5009439;28;20026;-73
2021/11/05 16:57:22;;;;;;;12.35;5.40;;;11.60;47.50;;;;;;5019712;28;20030;-72
2021/11/05 16:59:48;;;;;;;4.70;3.63;;;10.90;50.10;;;;;;4973639;28;20042;-76
2021/11/05 17:02:14;;;;;;;3.90;2.92;;;10.50;51.20;;;;;;5012511;28;20174;-73
2021/11/05 17:04:42;;;;;;;8.90;4.10;;;10.20;51.70;;;;;;4989437;28;20395;-73
2021/11/05 17:07:10;;;;;;;5.35;3.65;;;10.00;52.70;;;;;;4991129;28;20085;-76
2021/11/05 17:09:36;;;;;;;5.22;4.07;;;9.80;53.60;;;;;;4991297;28;20050;-77
2021/11/05 17:12:02;;;;;;;6.43;4.00;;;9.70;54.40;;;;;;4989865;28;20031;-77
2021/11/05 17:14:28;;;;;;;6.13;3.90;;;9.60;53.70;;;;;;4990372;28;20434;-76
2021/11/05 17:16:54;;;;;;;5.55;3.15;;;9.50;54.10;;;;;;4991780;28;20023;-74
2021/11/05 17:19:20;;;;;;;6.13;4.03;;;9.50;53.80;;;;;;4992022;28;20023;-77
2021/11/05 17:21:45;;;;;;;4.47;3.10;;;9.50;53.40;;;;;;4991098;28;20502;-73
2021/11/05 17:24:11;;;;;;;4.88;3.58;;;9.50;52.90;;;;;;4989558;28;20025;-77
2021/11/05 17:26:37;;;;;;;5.53;3.00;;;9.50;53.10;;;;;;5022420;28;20458;-73
2021/11/05 17:29:04;;;;;;;5.00;3.00;;;9.50;52.70;;;;;;4991173;28;20478;-78
2021/11/05 17:31:30;;;;;;;5.05;2.85;;;9.50;52.50;;;;;;4990233;28;20081;-74
2021/11/05 17:34:00;;;;;;;8.55;3.30;;;9.50;52.50;;;;;;4990442;28;20102;-74
2021/11/05 17:36:26;;;;;;;4.50;2.67;;;9.40;52.30;;;;;;4989854;28;20499;-77
2021/11/05 17:38:53;;;;;;;4.95;3.15;;;9.40;52.10;;;;;;5021902;28;20076;-73
2021/11/05 17:41:19;;;;;;;5.88;2.97;;;9.40;52.40;;;;;;4989496;28;20027;-74
2021/11/05 17:43:45;;;;;;;4.90;2.70;;;9.30;52.20;;;;;;4990558;28;20023;-76
2021/11/05 17:46:11;;;;;;;4.70;2.50;;;9.30;52.00;;;;;;5022151;28;20041;-77
2021/11/05 17:48:37;;;;;;;6.07;3.25;;;9.30;51.80;;;;;;4978222;28;20031;-74
2021/11/05 17:51:03;;;;;;;6.65;3.08;;;9.20;52.00;;;;;;4977068;28;20110;-74
2021/11/05 17:53:29;;;;;;;6.03;3.75;;;9.20;52.40;;;;;;5007922;28;20122;-75
2021/11/05 17:55:56;;;;;;;6.03;3.25;;;9.20;52.20;;;;;;5008063;28;20521;-72
2021/11/05 17:58:22;;;;;;;8.02;3.75;;;9.10;52.30;;;;;;4975835;28;20391;-76
2021/11/05 18:00:48;;;;;;;10.77;4.20;;;9.10;52.70;;;;;;5008830;28;20023;-73
2021/11/05 18:03:18;;;;;;;6.72;3.25;;;9.00;53.00;;;;;;4975654;28;20023;-73
2021/11/05 18:05:50;;;;;;;5.60;3.80;;;9.00;53.10;;;;;;4977008;28;20023;-73
2021/11/05 18:08:20;;;;;;;5.18;2.97;;;8.90;52.20;;;;;;4975214;28;20031;-74
2021/11/05 18:10:46;;;;;;;5.68;3.15;;;8.90;52.10;;;;;;4977468;28;20034;-74
2021/11/05 18:13:14;;;;;;;3.45;2.50;;;8.90;52.00;;;;;;4974342;28;20479;-77
2021/11/05 18:15:43;;;;;;;4.22;2.75;;;8.90;51.70;;;;;;4976545;28;20026;-77
2021/11/05 18:18:09;;;;;;;4.00;2.50;;;8.90;51.60;;;;;;4977214;28;20475;-74
2021/11/05 18:20:37;;;;;;;3.58;2.38;;;8.80;52.10;;;;;;4975828;28;20023;-77
2021/11/05 18:23:04;;;;;;;2.33;1.67;;;8.80;52.20;;;;;;5007483;28;20066;-74
2021/11/05 18:25:30;;;;;;;;;;;8.80;51.40;;;;;;4977173;28;20027;-73
2021/11/05 18:27:57;;;;;;;2.83;2.40;;;8.80;51.50;;;;;;4976620;28;19906;-77
2021/11/05 18:30:24;;;;;;;3.53;2.25;;;8.90;51.30;;;;;;4976642;28;20026;-77
2021/11/05 18:32:50;;;;;;;3.78;2.45;;;8.80;51.50;;;;;;4976198;28;20038;-77
2021/11/05 18:35:15;;;;;;;4.05;2.60;;;8.90;51.30;;;;;;4975123;28;20118;-74
2021/11/05 18:37:42;;;;;;;4.65;2.20;;;8.90;51.30;;;;;;4975768;28;20422;-77
2021/11/05 18:40:09;;;;;;;4.00;2.17;;;8.90;51.20;;;;;;4976287;28;20475;-77
2021/11/05 18:42:35;;;;;;;3.67;2.47;;;8.80;51.80;;;;;;4975098;28;20030;-73
2021/11/05 18:45:04;;;;;;;5.63;2.45;;;8.80;51.10;;;;;;4975735;28;20029;-73
2021/11/05 18:47:32;;;;;;;4.50;2.50;;;8.80;50.90;;;;;;4975914;28;20423;-77
2021/11/05 18:49:58;;;;;;;3.53;2.08;;;8.80;50.80;;;;;;4975600;28;20015;-78
2021/11/05 18:52:24;;;;;;;3.90;2.60;;;8.80;51.10;;;;;;4974341;28;20038;-77
2021/11/05 18:54:50;;;;;;;2.85;1.92;;;8.80;50.80;;;;;;4975915;28;20027;-78
2021/11/05 18:57:16;;;;;;;4.85;2.70;;;8.70;51.20;;;;;;5003559;28;20022;-77
2021/11/05 18:59:42;;;;;;;2.92;1.83;;;8.70;51.00;;;;;;4974680;28;20385;-78
2021/11/05 19:02:08;;;;;;;3.42;2.30;;;8.70;50.80;;;;;;4975821;28;20027;-77
2021/11/05 19:04:34;;;;;;;4.72;1.70;;;8.70;50.70;;;;;;4973783;28;20026;-73
2021/11/05 19:07:00;;;;;;;4.68;2.50;;;8.70;51.00;;;;;;4974297;28;20111;-77
2021/11/05 19:09:26;;;;;;;2.20;1.38;;;8.60;50.70;;;;;;4975700;28;20093;-73
2021/11/05 19:11:51;;;;;;;3.15;1.67;;;8.70;50.20;;;;;;4974744;28;20026;-76
2021/11/05 19:14:18;;;;;;;3.85;2.00;;;8.70;50.70;;;;;;5006103;28;20022;-74
2021/11/05 19:16:46;;;;;;;3.83;1.90;;;8.70;50.40;;;;;;4975065;28;20029;-73
2021/11/05 19:19:12;;;;;;;3.17;2.25;;;8.60;51.00;;;;;;4973406;28;20019;-77
2021/11/05 19:21:38;;;;;;;3.25;1.92;;;8.60;50.90;;;;;;4971479;28;20027;-77
2021/11/05 19:24:09;;;;;;;4.28;1.58;;;8.50;51.10;;;;;;4974558;28;20049;-73
2021/11/05 19:26:39;;;;;;;3.88;2.33;;;8.50;51.00;;;;;;4974553;28;20023;-76
2021/11/05 19:29:12;;;;;;;6.55;2.03;;;8.50;51.00;;;;;;4975331;28;20383;-74
2021/11/05 19:31:39;;;;;;;3.67;2.00;;;8.40;51.20;;;;;;4974838;28;20085;-73
2021/11/05 19:34:05;;;;;;;3.20;2.17;;;8.40;50.60;;;;;;4973585;28;20019;-73
2021/11/05 19:36:31;;;;;;;3.03;1.73;;;8.40;51.00;;;;;;4968957;28;20057;-73
2021/11/05 19:38:56;;;;;;;3.58;2.03;;;8.40;50.50;;;;;;4973451;28;20175;-74
2021/11/05 19:41:22;;;;;;;5.50;1.90;;;8.50;50.80;;;;;;4966439;28;20541;-77
2021/11/05 19:43:48;;;;;;;3.08;1.63;;;8.50;50.60;;;;;;5006156;28;20026;-77
2021/11/05 19:46:14;;;;;;;3.22;1.60;;;8.50;50.40;;;;;;4973700;28;20030;-77
2021/11/05 19:48:41;;;;;;;4.47;2.33;;;8.50;50.30;;;;;;4974508;28;20030;-74
2021/11/05 19:51:07;;;;;;;4.35;2.17;;;8.50;50.20;;;;;;4972851;28;20034;-73
2021/11/05 19:53:34;;;;;;;3.63;1.90;;;8.50;49.80;;;;;;4974007;28;20035;-73
2021/11/05 19:56:00;;;;;;;6.28;1.75;;;8.50;50.10;;;;;;4973726;28;20109;-74
2021/11/05 19:58:26;;;;;;;2.08;1.33;;;8.50;50.10;;;;;;4973361;28;20043;-77
2021/11/05 20:00:52;;;;;;;3.85;1.80;;;8.50;49.90;;;;;;4973202;28;20050;-77
2021/11/05 20:03:17;;;;;;;4.18;2.05;;;8.50;50.10;;;;;;4999536;28;20022;-77
2021/11/05 20:05:44;;;;;;;3.10;2.00;;;8.40;50.10;;;;;;4973419;28;20027;-78
2021/11/05 20:08:12;;;;;;;2.78;1.30;;;8.50;50.00;;;;;;5003941;28;20011;-77
2021/11/05 20:10:43;;;;;;;;;;;8.50;49.60;;;;;;4974171;28;20054;-75
2021/11/05 20:13:10;;;;;;;2.10;1.45;;;8.60;48.50;;;;;;4971840;28;19906;-74
2021/11/05 20:15:38;;;;;;;2.47;1.60;;;8.70;48.70;;;;;;4973826;28;20068;-73
2021/11/05 20:18:06;;;;;;;3.83;1.98;;;8.60;48.80;;;;;;4972520;28;20018;-77
2021/11/05 20:20:32;;;;;;;2.65;1.48;;;8.60;48.90;;;;;;4973973;28;20029;-77
2021/11/05 20:23:03;;;;;;;2.50;1.35;;;8.60;49.50;;;;;;4973605;28;20019;-74
2021/11/05 20:25:28;;;;;;;2.08;1.25;;;8.60;48.50;;;;;;4973896;28;20018;-77
2021/11/05 20:27:54;;;;;;;2.33;1.23;;;8.60;48.50;;;;;;4974085;28;20037;-78
2021/11/05 20:30:20;;;;;;;2.95;1.20;;;8.70;48.30;;;;;;4971012;28;20498;-78
2021/11/05 20:32:46;;;;;;;4.90;1.48;;;8.60;48.50;;;;;;4973778;28;20069;-73
2021/11/05 20:35:13;;;;;;;3.00;1.40;;;8.60;48.10;;;;;;4968782;28;20023;-73
2021/11/05 20:37:38;;;;;;;4.05;1.73;;;8.60;48.50;;;;;;4972103;28;20384;-77
2021/11/05 20:40:05;;;;;;;3.15;1.83;;;8.50;49.00;;;;;;4972423;28;20030;-72
2021/11/05 20:42:31;;;;;;;1.92;1.30;;;8.40;49.40;;;;;;4973535;28;20153;-74
2021/11/05 20:44:57;;;;;;;3.05;1.52;;;8.40;49.10;;;;;;4970909;28;20046;-74
2021/11/05 20:47:23;;;;;;;2.13;1.20;;;8.30;49.30;;;;;;4973562;28;20557;-73
2021/11/05 20:49:49;;;;;;;3.60;1.98;;;8.40;49.00;;;;;;4973388;28;20645;-77
2021/11/05 20:52:15;;;;;;;2.30;1.00;;;8.30;49.00;;;;;;4982216;28;20447;-77
2021/11/05 20:54:41;;;;;;;3.35;1.27;;;8.40;48.40;;;;;;4973784;28;20106;-77
2021/11/05 20:57:07;;;;;;;2.65;1.08;;;8.40;48.40;;;;;;4973882;28;20015;-75
2021/11/05 20:59:34;;;;;;;2.03;1.42;;;8.40;48.30;;;;;;4973871;28;20491;-78
2021/11/05 21:02:00;;;;;;;3.42;1.40;;;8.40;47.90;;;;;;4972655;28;20030;-77
2021/11/05 21:04:25;;;;;;;3.33;1.52;;;8.40;48.10;;;;;;5005069;28;20031;-74
2021/11/05 21:06:51;;;;;;;2.03;1.08;;;8.40;48.30;;;;;;4973720;28;20022;-77
2021/11/05 21:09:17;;;;;;;1.83;0.90;;;8.40;48.10;;;;;;5005281;28;20018;-73
2021/11/05 21:11:43;;;;;;;1.83;1.27;;;8.30;48.30;;;;;;4973334;28;20027;-73
2021/11/05 21:14:10;;;;;;;2.13;1.05;;;8.30;48.40;;;;;;5004747;28;20415;-74
2021/11/05 21:16:36;;;;;;;2.20;1.20;;;8.30;48.00;;;;;;4972546;28;20019;-74
2021/11/05 21:19:03;;;;;;;1.80;1.20;;;8.40;47.30;;;;;;4967157;28;20387;-77
2021/11/05 21:21:34;;;;;;;2.22;1.45;;;8.30;47.60;;;;;;4973830;28;20050;-78
2021/11/05 21:24:00;;;;;;;2.53;1.17;;;8.30;48.60;;;;;;4976502;28;20023;-73
2021/11/05 21:26:26;;;;;;;2.35;1.30;;;8.30;47.30;;;;;;4971501;28;20034;-73
2021/11/05 21:28:52;;;;;;;2.35;1.00;;;8.30;47.60;;;;;;4977189;28;20033;-77
2021/11/05 21:31:18;;;;;;;2.50;1.27;;;8.30;47.00;;;;;;4977424;28;20105;-76
2021/11/05 21:33:44;;;;;;;1.80;1.20;;;8.30;47.30;;;;;;4977397;28;20398;-77
2021/11/05 21:36:10;;;;;;;4.70;1.77;;;8.30;47.20;;;;;;4976696;28;20042;-74
2021/11/05 21:38:36;;;;;;;3.13;1.60;;;8.30;47.90;;;;;;4977182;28;20468;-77
2021/11/05 21:41:02;;;;;;;5.65;1.70;;;8.20;47.70;;;;;;4977131;28;20023;-77
2021/11/05 21:43:28;;;;;;;2.35;1.50;;;8.20;48.40;;;;;;4976754;28;20038;-77
2021/11/05 21:45:54;;;;;;;3.05;1.35;;;8.10;47.90;;;;;;4976834;28;20027;-73
2021/11/05 21:48:20;;;;;;;3.38;1.98;;;8.20;47.70;;;;;;4975384;28;20170;-78
2021/11/05 21:50:46;;;;;;;2.47;1.73;;;8.20;48.00;;;;;;4977192;28;20030;-78
2021/11/05 21:53:13;;;;;;;3.03;1.48;;;8.10;47.90;;;;;;4976658;28;20545;-77
2021/11/05 21:55:40;;;;;;;2.65;1.73;;;8.10;47.90;;;;;;4976810;28;20034;-73
2021/11/05 21:58:06;;;;;;;2.63;1.70;;;8.10;48.20;;;;;;4977103;28;20030;-78
2021/11/05 22:00:32;;;;;;;3.22;1.55;;;8.10;48.10;;;;;;4975470;28;20029;-77
2021/11/05 22:02:58;;;;;;;3.05;1.42;;;8.10;47.70;;;;;;4977828;28;20030;-77
2021/11/05 22:05:24;;;;;;;2.33;1.60;;;8.10;48.00;;;;;;4985573;28;20082;-77
2021/11/05 22:07:51;;;;;;;2.25;1.70;;;8.10;48.10;;;;;;4975554;28;20069;-78
2021/11/05 22:10:18;;;;;;;2.42;1.63;;;8.00;48.00;;;;;;4970577;28;20101;-73
2021/11/05 22:12:46;;;;;;;4.47;1.50;;;8.10;48.60;;;;;;5007730;28;20057;-78
2021/11/05 22:15:12;;;;;;;2.67;1.33;;;8.10;47.60;;;;;;4975257;28;20022;-74
2021/11/05 22:17:39;;;;;;;2.22;1.60;;;8.10;47.50;;;;;;4975269;28;20072;-78
2021/11/05 22:20:07;;;;;;;3.03;1.90;;;8.10;48.20;;;;;;4975122;28;20072;-77
2021/11/05 22:22:33;;;;;;;3.03;1.75;;;8.00;48.20;;;;;;4974539;28;20551;-74
2021/11/05 22:25:03;;;;;;;2.53;1.70;;;8.00;48.40;;;;;;4975160;28;20019;-78
2021/11/05 22:27:30;;;;;;;3.58;1.85;;;7.90;48.70;;;;;;4975476;28;20030;-77
2021/11/05 22:29:56;;;;;;;4.07;2.08;;;7.80;49.20;;;;;;4975687;28;20027;-73
2021/11/05 22:32:27;;;;;;;4.97;2.10;;;7.80;49.30;;;;;;4971450;28;20102;-73
2021/11/05 22:34:53;;;;;;;3.22;1.85;;;7.70;49.80;;;;;;4975546;28;20069;-77
2021/11/05 22:37:19;;;;;;;3.45;1.92;;;7.60;50.10;;;;;;4972118;28;20046;-77
2021/11/05 22:39:44;;;;;;;3.53;1.58;;;7.60;49.60;;;;;;4974346;28;20026;-74
2021/11/05 22:42:10;;;;;;;2.15;1.60;;;7.60;50.00;;;;;;4975568;28;20098;-77
2021/11/05 22:44:37;;;;;;;3.00;1.85;;;7.60;49.90;;;;;;4974263;28;20382;-77
2021/11/05 22:47:03;;;;;;;4.05;1.85;;;7.50;49.80;;;;;;4974963;28;20030;-74
2021/11/05 22:49:29;;;;;;;3.60;1.65;;;7.60;49.80;;;;;;4975391;28;20488;-72
2021/11/05 22:51:55;;;;;;;5.20;2.13;;;7.60;49.20;;;;;;4975243;28;20098;-77
2021/11/05 22:54:21;;;;;;;2.70;1.60;;;7.60;49.70;;;;;;4974839;28;20023;-75
2021/11/05 22:56:46;;;;;;;3.50;1.73;;;7.60;49.60;;;;;;4973227;28;20448;-74
2021/11/05 22:59:12;;;;;;;3.38;1.90;;;7.50;50.20;;;;;;5006244;28;20023;-78
2021/11/05 23:01:39;;;;;;;3.75;1.52;;;7.50;50.60;;;;;;4972936;28;20019;-78
2021/11/05 23:04:04;;;;;;;2.50;1.60;;;7.50;50.10;;;;;;4977830;28;20023;-75
2021/11/05 23:06:30;;;;;;;2.55;1.50;;;7.50;50.10;;;;;;4973533;28;20406;-72
2021/11/05 23:08:56;;;;;;;2.65;1.50;;;7.40;50.80;;;;;;4975022;28;20070;-74
2021/11/05 23:11:22;;;;;;;2.90;1.50;;;7.30;51.20;;;;;;4974711;28;20030;-77
2021/11/05 23:13:47;;;;;;;2.95;1.50;;;7.30;50.60;;;;;;4978030;28;20161;-73
2021/11/05 23:16:16;;;;;;;3.28;1.52;;;7.30;50.30;;;;;;5004242;28;20034;-73
2021/11/05 23:18:42;;;;;;;2.10;1.42;;;7.40;50.00;;;;;;4974655;28;20027;-72
2021/11/05 23:21:11;;;;;;;2.63;1.17;;;7.40;49.90;;;;;;5006163;28;20471;-73
2021/11/05 23:23:37;;;;;;;2.30;1.35;;;7.40;50.10;;;;;;5006546;28;20122;-73
2021/11/05 23:26:03;;;;;;;2.92;1.77;;;7.40;49.80;;;;;;4975079;28;20054;-72
2021/11/05 23:28:29;;;;;;;2.40;1.40;;;7.40;49.60;;;;;;4974868;28;20023;-78
2021/11/05 23:30:56;;;;;;;2.13;1.38;;;7.40;50.00;;;;;;4974920;28;20097;-73
2021/11/05 23:33:22;;;;;;;3.75;1.45;;;7.40;49.80;;;;;;4975197;28;20027;-72
2021/11/05 23:35:51;;;;;;;2.58;1.70;;;7.40;50.10;;;;;;5005931;28;20553;-78
2021/11/05 23:38:18;;;;;;;2.85;1.20;;;7.40;49.80;;;;;;5006480;28;20029;-72
2021/11/05 23:40:44;;;;;;;3.42;1.52;;;7.40;49.40;;;;;;4974979;28;20030;-74
2021/11/05 23:43:11;;;;;;;2.50;1.20;;;7.40;49.40;;;;;;4974699;28;20050;-75
2021/11/05 23:45:37;;;;;;;2.50;1.20;;;7.30;49.90;;;;;;4974445;28;20082;-74
2021/11/05 23:48:04;;;;;;;3.53;1.73;;;7.30;49.60;;;;;;4961561;28;20089;-78
2021/11/05 23:50:31;;;;;;;2.58;1.25;;;7.30;50.00;;;;;;4955843;28;20011;-78
2021/11/05 23:52:58;;;;;;;1.90;1.40;;;7.30;49.90;;;;;;4998727;28;20030;-74
2021/11/05 23:55:24;;;;;;;2.08;1.35;;;7.30;49.40;;;;;;4974575;28;20022;-74
2021/11/05 23:57:50;;;;;;;2.20;1.30;;;7.30;49.20;;;;;;4974755;28;20560;-74
